createdAt,value
2022-08-07T00:00:36.498Z,42.49
2022-08-07T00:03:09.024Z,41.93
2022-08-07T00:05:37.277Z,42.19
2022-08-07T00:08:05.415Z,42.30
2022-08-07T00:10:35.632Z,42.23
2022-08-07T00:13:17.471Z,42.08
2022-08-07T00:15:52.402Z,42.31
2022-08-07T00:18:23.996Z,42.35
2022-08-07T00:21:01.636Z,42.22
2022-08-07T00:23:32.474Z,42.51
2022-08-07T00:26:10.871Z,42.35
2022-08-07T00:28:56.561Z,42.57
2022-08-07T00:31:37.540Z,42.23
2022-08-07T00:34:09.171Z,42.65
2022-08-07T00:36:43.351Z,42.37
2022-08-07T00:39:12.867Z,41.92
2022-08-07T00:41:53.891Z,42.29
2022-08-07T00:44:30.209Z,42.24
2022-08-07T00:46:57.132Z,42.67
2022-08-07T00:50:20.315Z,42.57
2022-08-07T00:52:13.340Z,42.44
2022-08-07T00:54:44.445Z,42.48
2022-08-07T00:57:12.741Z,42.74
2022-08-07T00:59:39.951Z,42.94
2022-08-07T01:02:13.901Z,42.80
2022-08-07T01:04:58.383Z,42.59
2022-08-07T01:07:27.752Z,42.51
2022-08-07T01:10:06.764Z,42.85
2022-08-07T01:12:53.368Z,42.81
2022-08-07T01:15:36.072Z,42.86
2022-08-07T01:18:11.381Z,42.74
2022-08-07T01:20:57.300Z,42.93
2022-08-07T01:23:38.574Z,42.64
2022-08-07T01:26:08.409Z,42.91
2022-08-07T01:28:45.940Z,42.66
2022-08-07T01:31:15.389Z,42.96
2022-08-07T01:33:56.264Z,43.13
2022-08-07T01:36:33.574Z,42.55
2022-08-07T01:39:01.366Z,42.90
2022-08-07T01:41:32.613Z,43.24
2022-08-07T01:43:59.756Z,43.03
2022-08-07T01:46:28.726Z,42.92
2022-08-07T01:48:59.895Z,42.87
2022-08-07T01:52:03.575Z,43.20
2022-08-07T01:54:37.049Z,43.11
2022-08-07T01:57:24.434Z,42.97
2022-08-07T01:59:56.447Z,43.22
2022-08-07T02:03:12.044Z,43.14
2022-08-07T02:05:47.983Z,42.92
2022-08-07T02:08:25.461Z,43.03
2022-08-07T02:10:58.081Z,43.18
2022-08-07T02:13:56.571Z,43.19
2022-08-07T02:16:19.617Z,43.27
2022-08-07T02:18:49.327Z,43.38
2022-08-07T02:21:19.783Z,43.11
2022-08-07T02:23:47.809Z,43.44
2022-08-07T02:26:34.541Z,43.31
2022-08-07T02:29:13.726Z,43.58
2022-08-07T02:31:41.258Z,43.33
2022-08-07T02:34:11.418Z,43.28
2022-08-07T02:36:45.363Z,43.70
2022-08-07T02:39:16.131Z,43.61
2022-08-07T02:41:47.267Z,43.37
2022-08-07T02:44:18.562Z,43.33
2022-08-07T02:46:52.683Z,43.41
2022-08-07T02:49:28.838Z,43.26
2022-08-07T02:52:13.999Z,43.80
2022-08-07T02:54:42.818Z,43.74
2022-08-07T02:57:14.154Z,43.49
2022-08-07T02:59:45.669Z,43.58
2022-08-07T03:02:22.854Z,43.48
2022-08-07T03:04:53.313Z,43.77
2022-08-07T03:07:21.493Z,43.67
2022-08-07T03:10:09.711Z,43.78
2022-08-07T03:12:37.615Z,43.65
2022-08-07T03:15:08.208Z,43.93
2022-08-07T03:17:53.920Z,44.03
2022-08-07T03:20:23.535Z,43.81
2022-08-07T03:22:52.600Z,43.48
2022-08-07T03:25:21.372Z,44.01
2022-08-07T03:27:59.138Z,43.95
2022-08-07T03:30:27.724Z,43.88
2022-08-07T03:32:58.672Z,44.17
2022-08-07T03:35:43.576Z,44.07
2022-08-07T03:38:21.036Z,44.04
2022-08-07T03:40:53.835Z,43.91
2022-08-07T03:43:26.687Z,44.25
2022-08-07T03:46:00.027Z,43.87
2022-08-07T03:48:31.970Z,44.04
2022-08-07T03:51:02.082Z,44.02
2022-08-07T03:54:05.898Z,43.80
2022-08-07T03:56:32.602Z,44.33
2022-08-07T03:59:08.133Z,44.21
2022-08-07T04:01:43.323Z,44.14
2022-08-07T04:04:17.284Z,44.11
2022-08-07T04:06:45.440Z,44.25
2022-08-07T04:09:15.049Z,43.95
2022-08-07T04:12:27.463Z,44.32
2022-08-07T04:14:38.566Z,44.32
2022-08-07T04:17:20.258Z,44.34
2022-08-07T04:19:51.471Z,44.37
2022-08-07T04:22:27.538Z,44.45
2022-08-07T04:25:01.517Z,44.35
2022-08-07T04:27:35.626Z,44.60
2022-08-07T04:30:04.881Z,44.07
2022-08-07T04:32:37.805Z,44.49
2022-08-07T04:35:07.289Z,44.10
2022-08-07T04:38:01.091Z,44.47
2022-08-07T04:40:30.148Z,44.63
2022-08-07T04:43:01.945Z,44.27
2022-08-07T04:45:54.949Z,44.39
2022-08-07T04:48:52.197Z,44.34
2022-08-07T04:51:45.009Z,44.81
2022-08-07T04:54:29.950Z,44.24
2022-08-07T04:58:24.304Z,44.43
2022-08-07T05:00:12.833Z,44.66
2022-08-07T05:03:17.295Z,44.75
2022-08-07T05:06:19.265Z,44.27
2022-08-07T05:09:09.537Z,44.55
2022-08-07T05:11:57.510Z,44.74
2022-08-07T05:14:53.187Z,44.59
2022-08-07T05:17:52.869Z,44.45
2022-08-07T05:20:11.597Z,44.54
2022-08-07T05:22:43.546Z,44.56
2022-08-07T05:25:26.307Z,44.76
2022-08-07T05:28:16.408Z,44.62
2022-08-07T05:30:49.223Z,44.52
2022-08-07T05:33:17.900Z,44.95
2022-08-07T05:35:45.672Z,44.35
2022-08-07T05:39:00.302Z,44.76
2022-08-07T05:41:12.329Z,44.59
2022-08-07T05:44:07.931Z,44.91
2022-08-07T05:46:38.655Z,44.85
2022-08-07T05:49:12.087Z,45.17
2022-08-07T05:51:43.268Z,44.96
2022-08-07T05:54:31.163Z,45.17
2022-08-07T05:57:03.473Z,45.04
2022-08-07T05:59:38.913Z,44.96
2022-08-07T06:02:28.534Z,45.04
2022-08-07T06:05:01.924Z,45.01
2022-08-07T06:08:13.569Z,44.69
2022-08-07T06:10:20.381Z,44.94
2022-08-07T06:12:48.024Z,44.91
2022-08-07T06:15:16.424Z,44.66
2022-08-07T06:17:53.449Z,44.90
2022-08-07T06:20:25.703Z,44.89
2022-08-07T06:23:25.557Z,44.86
2022-08-07T06:25:54.834Z,44.90
2022-08-07T06:28:27.701Z,44.85
2022-08-07T06:30:56.074Z,45.27
2022-08-07T06:33:24.462Z,44.86
2022-08-07T06:36:12.873Z,45.00
2022-08-07T06:38:39.534Z,45.00
2022-08-07T06:42:13.474Z,44.81
2022-08-07T06:44:42.491Z,45.18
2022-08-07T06:47:12.692Z,44.95
2022-08-07T06:49:51.584Z,45.03
2022-08-07T06:52:31.287Z,44.81
2022-08-07T06:55:33.672Z,44.97
2022-08-07T06:58:02.441Z,45.06
2022-08-07T07:00:36.683Z,44.77
2022-08-07T07:03:10.847Z,44.69
2022-08-07T07:06:03.543Z,44.90
2022-08-07T07:08:31.085Z,44.93
2022-08-07T07:11:02.811Z,44.88
2022-08-07T07:13:57.662Z,44.84
2022-08-07T07:16:33.935Z,45.18
2022-08-07T07:19:54.744Z,44.63
2022-08-07T07:22:04.569Z,44.71
2022-08-07T07:24:42.829Z,44.77
2022-08-07T07:27:13.488Z,44.82
2022-08-07T07:30:07.486Z,44.80
2022-08-07T07:32:38.882Z,44.58
2022-08-07T07:35:08.622Z,44.81
2022-08-07T07:37:47.466Z,44.49
2022-08-07T07:40:20.516Z,44.74
2022-08-07T07:42:54.409Z,44.78
2022-08-07T07:46:35.664Z,44.59
2022-08-07T07:48:35.136Z,44.77
2022-08-07T07:51:08.053Z,44.88
2022-08-07T07:53:50.338Z,44.57
2022-08-07T07:56:30.573Z,44.71
2022-08-07T07:59:02.809Z,44.49
2022-08-07T08:02:04.061Z,44.36
2022-08-07T08:04:25.630Z,44.58
2022-08-07T08:06:53.987Z,44.24
2022-08-07T08:09:24.593Z,44.22
2022-08-07T08:12:01.833Z,44.12
2022-08-07T08:14:36.564Z,44.16
2022-08-07T08:17:55.315Z,43.99
2022-08-07T08:20:18.311Z,44.36
2022-08-07T08:23:10.951Z,44.15
2022-08-07T08:26:03.412Z,44.40
2022-08-07T08:28:39.188Z,44.18
2022-08-07T08:31:15.739Z,44.16
2022-08-07T08:33:49.987Z,44.39
2022-08-07T08:36:29.638Z,44.11
2022-08-07T08:39:02.160Z,44.25
2022-08-07T08:41:56.968Z,43.75
2022-08-07T08:44:44.808Z,43.98
2022-08-07T08:47:27.792Z,43.53
2022-08-07T08:50:17.568Z,43.84
2022-08-07T08:53:14.395Z,43.51
2022-08-07T08:55:58.523Z,44.11
2022-08-07T08:58:39.773Z,43.67
2022-08-07T09:01:22.722Z,43.43
2022-08-07T09:04:09.017Z,43.84
2022-08-07T09:07:06.361Z,43.28
2022-08-07T09:09:49.036Z,43.50
2022-08-07T09:12:32.075Z,43.90
2022-08-07T09:16:22.087Z,43.13
2022-08-07T09:18:23.565Z,43.17
2022-08-07T09:21:58.054Z,43.09
2022-08-07T09:24:30.995Z,43.05
2022-08-07T09:27:09.114Z,42.94
2022-08-07T09:30:04.040Z,43.05
2022-08-07T09:33:05.486Z,42.83
2022-08-07T09:36:03.866Z,43.21
2022-08-07T09:39:53.589Z,43.36
2022-08-07T09:42:22.960Z,42.76
2022-08-07T09:47:27.670Z,43.12
2022-08-07T09:48:05.164Z,42.70
2022-08-07T09:50:52.348Z,42.62
2022-08-07T09:53:23.261Z,43.19
2022-08-07T09:56:37.520Z,42.75
2022-08-07T09:59:37.056Z,42.36
2022-08-07T10:02:55.414Z,42.82
2022-08-07T10:05:29.704Z,42.47
2022-08-07T10:08:37.923Z,42.54
2022-08-07T10:12:02.432Z,42.67
2022-08-07T10:14:22.993Z,42.16
2022-08-07T10:17:25.091Z,42.52
2022-08-07T10:20:30.638Z,42.15
2022-08-07T10:24:05.006Z,41.71
2022-08-07T10:26:51.660Z,42.31
2022-08-07T10:29:35.489Z,41.58
2022-08-07T10:32:52.911Z,42.19
2022-08-07T10:35:27.258Z,42.20
2022-08-07T10:38:48.278Z,42.05
2022-08-07T10:41:46.847Z,42.03
2022-08-07T10:44:38.440Z,41.69
2022-08-07T10:48:03.769Z,41.85
2022-08-07T10:50:50.131Z,42.07
2022-08-07T10:53:26.072Z,41.48
2022-08-07T10:56:04.969Z,42.01
2022-08-07T10:59:03.904Z,41.85
2022-08-07T11:02:05.501Z,41.14
2022-08-07T11:04:55.671Z,41.78
2022-08-07T11:07:58.526Z,41.67
2022-08-07T11:11:00.179Z,41.03
2022-08-07T11:14:46.351Z,41.21
2022-08-07T11:17:23.093Z,40.62
2022-08-07T11:19:58.663Z,41.11
2022-08-07T11:22:46.403Z,41.25
2022-08-07T11:25:19.911Z,41.20
2022-08-07T11:28:28.812Z,41.15
2022-08-07T11:31:08.788Z,40.85
2022-08-07T11:33:54.219Z,40.75
2022-08-07T11:36:49.772Z,39.95
2022-08-07T11:39:39.810Z,40.49
2022-08-07T11:42:29.759Z,39.91
2022-08-07T11:45:35.312Z,40.82
2022-08-07T11:49:10.288Z,40.22
2022-08-07T11:51:56.499Z,40.44
2022-08-07T11:54:54.996Z,40.49
2022-08-07T11:58:00.226Z,40.61
2022-08-07T12:01:22.063Z,40.27
2022-08-07T12:03:55.526Z,39.53
2022-08-07T12:06:39.165Z,40.14
2022-08-07T12:09:28.662Z,39.41
2022-08-07T12:12:10.565Z,40.14
2022-08-07T12:15:57.927Z,40.24
2022-08-07T12:18:29.714Z,40.10
2022-08-07T12:21:15.000Z,39.26
2022-08-07T12:24:12.330Z,39.92
2022-08-07T12:27:05.230Z,39.84
2022-08-07T12:29:57.711Z,39.09
2022-08-07T12:32:52.605Z,39.29
2022-08-07T12:35:21.160Z,39.72
2022-08-07T12:38:09.698Z,39.44
2022-08-07T12:40:47.569Z,39.15
2022-08-07T12:44:03.650Z,38.79
2022-08-07T12:46:26.277Z,38.82
2022-08-07T12:49:40.184Z,38.98
2022-08-07T12:52:14.315Z,39.39
2022-08-07T12:55:01.562Z,39.15
2022-08-07T12:58:00.138Z,39.39
2022-08-07T13:00:35.823Z,38.52
2022-08-07T13:04:02.261Z,38.53
2022-08-07T13:07:00.379Z,39.27
2022-08-07T13:10:19.532Z,38.83
2022-08-07T13:12:29.252Z,38.35
2022-08-07T13:15:23.336Z,38.34
2022-08-07T13:18:06.637Z,38.73
2022-08-07T13:20:46.940Z,38.53
2022-08-07T13:24:01.363Z,38.90
2022-08-07T13:26:22.259Z,38.56
2022-08-07T13:28:58.419Z,38.20
2022-08-07T13:32:23.784Z,38.04
2022-08-07T13:35:11.207Z,38.50
2022-08-07T13:38:01.280Z,38.69
2022-08-07T13:40:36.735Z,38.07
2022-08-07T13:43:15.042Z,38.33
2022-08-07T13:46:11.069Z,38.03
2022-08-07T13:48:38.400Z,37.82
2022-08-07T13:51:28.384Z,37.80
2022-08-07T13:54:00.367Z,38.39
2022-08-07T13:56:35.319Z,38.34
2022-08-07T13:59:14.823Z,38.37
2022-08-07T14:02:10.805Z,38.20
2022-08-07T14:04:54.666Z,37.98
2022-08-07T14:07:29.354Z,37.69
2022-08-07T14:10:02.987Z,37.64
2022-08-07T14:12:57.479Z,38.07
2022-08-07T14:15:35.299Z,37.25
2022-08-07T14:18:28.057Z,38.07
2022-08-07T14:21:11.849Z,37.70
2022-08-07T14:24:03.750Z,37.00
2022-08-07T14:26:37.086Z,37.39
2022-08-07T14:30:05.596Z,37.21
2022-08-07T14:32:01.242Z,37.74
2022-08-07T14:34:31.028Z,37.42
2022-08-07T14:37:03.738Z,36.98
2022-08-07T14:40:16.042Z,37.61
2022-08-07T14:42:31.468Z,37.44
2022-08-07T14:45:22.485Z,37.55
2022-08-07T14:47:58.592Z,37.32
2022-08-07T14:50:27.961Z,37.46
2022-08-07T14:52:57.095Z,37.07
2022-08-07T14:55:39.370Z,37.07
2022-08-07T14:58:33.774Z,37.35
2022-08-07T15:01:21.751Z,37.01
2022-08-07T15:03:53.508Z,36.87
2022-08-07T15:06:26.167Z,37.24
2022-08-07T15:08:56.059Z,37.15
2022-08-07T15:11:50.828Z,37.10
2022-08-07T15:14:20.143Z,36.45
2022-08-07T15:16:54.897Z,36.66
2022-08-07T15:20:31.118Z,36.90
2022-08-07T15:22:22.142Z,36.83
2022-08-07T15:25:15.069Z,36.44
2022-08-07T15:30:36.635Z,36.38
2022-08-07T15:36:12.688Z,37.15
2022-08-07T15:38:51.843Z,36.50
2022-08-07T15:42:44.621Z,36.21
2022-08-07T15:44:20.972Z,36.44
2022-08-07T15:47:03.596Z,36.31
2022-08-07T15:50:05.177Z,36.22
2022-08-07T15:52:34.856Z,36.77
2022-08-07T15:55:11.595Z,36.82
2022-08-07T15:57:49.057Z,36.63
2022-08-07T16:00:31.579Z,36.56
2022-08-07T16:03:05.199Z,36.47
2022-08-07T16:05:33.316Z,36.47
2022-08-07T16:08:30.620Z,36.72
2022-08-07T16:11:29.007Z,36.49
2022-08-07T16:14:03.902Z,36.18
2022-08-07T16:17:15.997Z,36.50
2022-08-07T16:20:06.313Z,36.00
2022-08-07T16:23:05.110Z,36.08
2022-08-07T16:25:54.580Z,36.15
2022-08-07T16:30:08.384Z,35.84
2022-08-07T16:32:02.498Z,36.06
2022-08-07T16:34:55.303Z,36.54
2022-08-07T16:38:05.695Z,35.61
2022-08-07T16:41:24.130Z,35.91
2022-08-07T16:44:53.846Z,35.94
2022-08-07T16:47:56.426Z,35.64
2022-08-07T16:50:52.802Z,35.65
2022-08-07T16:54:06.208Z,36.48
2022-08-07T16:57:03.972Z,36.46
2022-08-07T16:59:45.856Z,36.14
2022-08-07T17:02:52.170Z,35.47
2022-08-07T17:06:28.211Z,36.02
2022-08-07T17:09:10.962Z,35.54
2022-08-07T17:12:04.625Z,36.11
2022-08-07T17:15:10.652Z,36.23
2022-08-07T17:17:48.099Z,36.13
2022-08-07T17:20:30.909Z,35.37
2022-08-07T17:23:16.726Z,36.33
2022-08-07T17:26:02.273Z,35.57
2022-08-07T17:28:41.341Z,35.27
2022-08-07T17:31:22.555Z,35.70
2022-08-07T17:34:34.058Z,36.28
2022-08-07T17:38:06.828Z,36.13
2022-08-07T17:42:01.837Z,35.52
2022-08-07T17:44:13.379Z,36.06
2022-08-07T17:46:58.723Z,35.88
2022-08-07T17:49:46.033Z,35.90
2022-08-07T17:52:39.732Z,36.13
2022-08-07T17:55:13.423Z,35.85
2022-08-07T17:57:59.026Z,35.84
2022-08-07T18:00:49.021Z,35.23
2022-08-07T18:04:07.113Z,36.13
2022-08-07T18:06:38.528Z,36.09
2022-08-07T18:09:08.678Z,35.92
2022-08-07T18:12:19.805Z,35.75
2022-08-07T18:15:02.585Z,35.14
2022-08-07T18:18:45.836Z,36.00
2022-08-07T18:21:26.346Z,35.46
2022-08-07T18:24:02.061Z,35.31
2022-08-07T18:26:57.062Z,35.42
2022-08-07T18:30:06.735Z,35.50
2022-08-07T18:32:29.988Z,35.47
2022-08-07T18:35:00.992Z,35.49
2022-08-07T18:38:58.330Z,35.51
2022-08-07T18:41:20.688Z,35.94
2022-08-07T18:44:00.194Z,35.45
2022-08-07T18:47:22.474Z,35.37
2022-08-07T18:50:39.739Z,35.37
2022-08-07T18:53:36.956Z,36.12
2022-08-07T18:56:58.244Z,35.30
2022-08-07T19:00:32.812Z,35.08
2022-08-07T19:03:35.618Z,35.07
2022-08-07T19:06:16.421Z,35.88
2022-08-07T19:09:09.397Z,35.62
2022-08-07T19:12:05.109Z,35.46
2022-08-07T19:15:01.407Z,35.32
2022-08-07T19:17:59.133Z,35.10
2022-08-07T19:21:42.021Z,35.85
2022-08-07T19:24:03.617Z,35.52
2022-08-07T19:28:29.063Z,35.86
2022-08-07T19:31:05.607Z,35.90
2022-08-07T19:32:36.940Z,35.79
2022-08-07T19:35:16.724Z,36.03
2022-08-07T19:38:16.659Z,35.94
2022-08-07T19:40:49.421Z,35.96
2022-08-07T19:43:50.224Z,35.55
2022-08-07T19:46:15.988Z,35.30
2022-08-07T19:48:53.625Z,36.34
2022-08-07T19:51:52.760Z,35.56
2022-08-07T19:54:33.036Z,35.38
2022-08-07T19:57:52.241Z,35.24
2022-08-07T20:00:28.281Z,36.19
2022-08-07T20:03:02.868Z,36.42
2022-08-07T20:06:01.227Z,36.08
2022-08-07T20:08:23.693Z,35.55
2022-08-07T20:10:56.286Z,36.40
2022-08-07T20:13:37.345Z,36.28
2022-08-07T20:16:22.432Z,35.79
2022-08-07T20:18:59.603Z,36.12
2022-08-07T20:21:41.855Z,36.36
2022-08-07T20:24:19.744Z,36.41
2022-08-07T20:26:52.284Z,36.09
2022-08-07T20:29:49.268Z,36.21
2022-08-07T20:32:23.137Z,36.03
2022-08-07T20:34:57.760Z,36.27
2022-08-07T20:37:55.544Z,36.00
2022-08-07T20:40:33.003Z,36.54
2022-08-07T20:43:03.827Z,36.72
2022-08-07T20:46:28.476Z,36.22
2022-08-07T20:48:34.521Z,36.38
2022-08-07T20:51:04.726Z,36.30
2022-08-07T20:54:01.962Z,36.57
2022-08-07T20:56:32.292Z,36.29
2022-08-07T20:59:05.263Z,36.71
2022-08-07T21:01:36.559Z,36.61
2022-08-07T21:04:27.909Z,36.68
2022-08-07T21:06:58.464Z,36.13
2022-08-07T21:09:53.055Z,36.21
2022-08-07T21:12:30.800Z,36.39
2022-08-07T21:15:02.494Z,36.48
2022-08-07T21:18:03.662Z,36.73
2022-08-07T21:20:29.886Z,36.62
2022-08-07T21:22:59.365Z,36.54
2022-08-07T21:26:12.117Z,36.49
2022-08-07T21:28:55.151Z,36.65
2022-08-07T21:32:47.656Z,36.90
2022-08-07T21:35:11.318Z,36.40
2022-08-07T21:37:58.110Z,36.68
2022-08-07T21:40:43.903Z,36.62
2022-08-07T21:43:23.235Z,36.80
2022-08-07T21:46:08.532Z,36.92
2022-08-07T21:48:56.955Z,36.92
2022-08-07T21:51:27.398Z,36.61
2022-08-07T21:54:05.224Z,36.65
2022-08-07T21:56:49.102Z,36.54
2022-08-07T21:59:36.330Z,37.13
2022-08-07T22:02:54.783Z,37.19
2022-08-07T22:05:44.178Z,36.87
2022-08-07T22:08:18.929Z,36.79
2022-08-07T22:11:00.505Z,36.76
2022-08-07T22:13:51.015Z,37.34
2022-08-07T22:16:38.346Z,37.10
2022-08-07T22:19:30.129Z,37.02
2022-08-07T22:22:20.697Z,37.09
2022-08-07T22:24:55.135Z,37.36
2022-08-07T22:27:34.102Z,36.81
2022-08-07T22:30:21.265Z,37.14
2022-08-07T22:33:07.062Z,37.13
2022-08-07T22:36:00.832Z,37.47
2022-08-07T22:38:31.761Z,37.40
2022-08-07T22:41:07.642Z,37.39
2022-08-07T22:43:56.340Z,37.25
2022-08-07T22:47:06.188Z,37.69
2022-08-07T22:49:54.376Z,37.54
2022-08-07T22:52:37.577Z,37.41
2022-08-07T22:55:38.414Z,37.36
2022-08-07T22:58:43.605Z,37.70
2022-08-07T23:01:49.472Z,37.73
2022-08-07T23:04:56.702Z,37.76
2022-08-07T23:08:23.863Z,37.81
2022-08-07T23:11:18.124Z,37.46
2022-08-07T23:14:15.015Z,37.68
2022-08-07T23:17:15.907Z,37.87
2022-08-07T23:20:40.246Z,37.96
2022-08-07T23:24:05.086Z,37.56
2022-08-07T23:26:26.189Z,37.61
2022-08-07T23:29:43.510Z,38.02
2022-08-07T23:34:20.879Z,38.05
2022-08-07T23:35:42.191Z,37.73
2022-08-07T23:38:42.454Z,38.04
2022-08-07T23:42:04.323Z,37.68
2022-08-07T23:45:02.970Z,37.87
2022-08-07T23:48:01.972Z,38.23
2022-08-07T23:50:49.505Z,37.93
2022-08-07T23:53:49.833Z,38.24
2022-08-07T23:56:21.442Z,38.26
